sensor_id;sensor_type;location;lat;lon;timestamp;temperature;humidity
20839;DHT22;10580;51.092;6.828;2022-07-29T01:16:03;18.60;1.00
20839;DHT22;10580;51.092;6.828;2022-07-29T01:18:34;18.50;1.00
20839;DHT22;10580;51.092;6.828;2022-07-29T01:26:59;18.50;1.00
20839;DHT22;10580;51.092;6.828;2022-07-29T01:29:35;18.50;1.00
20839;DHT22;10580;51.092;6.828;2022-07-29T01:32:13;18.50;1.00
20839;DHT22;10580;51.092;6.828;2022-07-29T01:37:43;18.50;1.00
20839;DHT22;10580;51.092;6.828;2022-07-29T01:40:36;18.40;1.00
20839;DHT22;10580;51.092;6.828;2022-07-29T01:43:10;18.50;1.00
20839;DHT22;10580;51.092;6.828;2022-07-29T01:45:46;18.40;1.00
20839;DHT22;10580;51.092;6.828;2022-07-29T01:48:16;18.40;1.00
20839;DHT22;10580;51.092;6.828;2022-07-29T01:50:49;18.40;1.00
20839;DHT22;10580;51.092;6.828;2022-07-29T01:53:23;18.50;1.00
20839;DHT22;10580;51.092;6.828;2022-07-29T01:55:52;18.50;1.00
20839;DHT22;10580;51.092;6.828;2022-07-29T01:58:19;18.50;1.00
20839;DHT22;10580;51.092;6.828;2022-07-29T02:00:46;18.40;1.00
20839;DHT22;10580;51.092;6.828;2022-07-29T02:03:14;18.40;1.00
20839;DHT22;10580;51.092;6.828;2022-07-29T02:05:45;18.40;1.00
20839;DHT22;10580;51.092;6.828;2022-07-29T02:08:13;18.40;1.00
20839;DHT22;10580;51.092;6.828;2022-07-29T02:11:20;18.40;1.00
20839;DHT22;10580;51.092;6.828;2022-07-29T02:13:55;18.40;1.00
20839;DHT22;10580;51.092;6.828;2022-07-29T02:16:22;18.40;1.00
20839;DHT22;10580;51.092;6.828;2022-07-29T02:18:51;18.30;1.00
20839;DHT22;10580;51.092;6.828;2022-07-29T02:21:21;18.30;1.00
20839;DHT22;10580;51.092;6.828;2022-07-29T02:23:48;18.30;1.00
20839;DHT22;10580;51.092;6.828;2022-07-29T02:26:17;18.20;1.00
20839;DHT22;10580;51.092;6.828;2022-07-29T02:28:43;18.30;1.00
20839;DHT22;10580;51.092;6.828;2022-07-29T02:31:13;18.30;1.00
20839;DHT22;10580;51.092;6.828;2022-07-29T02:33:40;18.30;1.00
20839;DHT22;10580;51.092;6.828;2022-07-29T02:36:07;18.30;1.00
20839;DHT22;10580;51.092;6.828;2022-07-29T02:38:35;18.30;1.00
20839;DHT22;10580;51.092;6.828;2022-07-29T02:41:37;18.30;1.00
20839;DHT22;10580;51.092;6.828;2022-07-29T02:44:19;18.30;1.00
20839;DHT22;10580;51.092;6.828;2022-07-29T02:46:51;18.30;1.00
20839;DHT22;10580;51.092;6.828;2022-07-29T02:49:47;18.30;1.00
20839;DHT22;10580;51.092;6.828;2022-07-29T02:53:07;18.40;1.00
20839;DHT22;10580;51.092;6.828;2022-07-29T02:55:43;18.40;1.00
20839;DHT22;10580;51.092;6.828;2022-07-29T02:58:21;18.40;1.00
20839;DHT22;10580;51.092;6.828;2022-07-29T03:00:55;18.50;1.00
20839;DHT22;10580;51.092;6.828;2022-07-29T03:03:25;18.50;1.00
20839;DHT22;10580;51.092;6.828;2022-07-29T03:05:57;18.40;1.00
20839;DHT22;10580;51.092;6.828;2022-07-29T03:08:24;18.40;1.00
20839;DHT22;10580;51.092;6.828;2022-07-29T03:10:52;18.40;99.90
20839;DHT22;10580;51.092;6.828;2022-07-29T03:13:19;18.40;1.00
20839;DHT22;10580;51.092;6.828;2022-07-29T03:15:47;18.40;1.00
20839;DHT22;10580;51.092;6.828;2022-07-29T03:18:16;18.40;99.90
20839;DHT22;10580;51.092;6.828;2022-07-29T03:20:42;18.40;99.90
20839;DHT22;10580;51.092;6.828;2022-07-29T03:23:11;18.30;99.90
20839;DHT22;10580;51.092;6.828;2022-07-29T03:25:36;18.30;99.90
20839;DHT22;10580;51.092;6.828;2022-07-29T03:28:05;18.30;99.90
20839;DHT22;10580;51.092;6.828;2022-07-29T03:30:31;18.20;1.00
20839;DHT22;10580;51.092;6.828;2022-07-29T03:32:56;18.20;1.00
20839;DHT22;10580;51.092;6.828;2022-07-29T03:35:22;18.20;1.00
20839;DHT22;10580;51.092;6.828;2022-07-29T03:37:50;18.10;1.00
20839;DHT22;10580;51.092;6.828;2022-07-29T03:40:31;18.10;1.00
20839;DHT22;10580;51.092;6.828;2022-07-29T03:43:03;18.00;1.00
20839;DHT22;10580;51.092;6.828;2022-07-29T03:45:35;17.90;1.00
20839;DHT22;10580;51.092;6.828;2022-07-29T03:48:08;17.80;1.00
20839;DHT22;10580;51.092;6.828;2022-07-29T03:50:34;17.70;1.00
20839;DHT22;10580;51.092;6.828;2022-07-29T03:53:01;17.70;1.00
20839;DHT22;10580;51.092;6.828;2022-07-29T03:55:29;17.60;1.00
20839;DHT22;10580;51.092;6.828;2022-07-29T03:57:57;17.50;1.00
20839;DHT22;10580;51.092;6.828;2022-07-29T04:00:25;17.40;1.00
20839;DHT22;10580;51.092;6.828;2022-07-29T04:02:52;17.30;1.00
20839;DHT22;10580;51.092;6.828;2022-07-29T04:05:33;17.30;1.00
20839;DHT22;10580;51.092;6.828;2022-07-29T04:07:58;17.20;1.00
20839;DHT22;10580;51.092;6.828;2022-07-29T04:10:24;17.20;1.00
20839;DHT22;10580;51.092;6.828;2022-07-29T04:12:50;17.20;1.00
20839;DHT22;10580;51.092;6.828;2022-07-29T04:15:18;17.10;1.00
20839;DHT22;10580;51.092;6.828;2022-07-29T04:17:43;17.10;1.00
20839;DHT22;10580;51.092;6.828;2022-07-29T04:20:09;17.10;1.00
20839;DHT22;10580;51.092;6.828;2022-07-29T04:22:38;17.00;1.00
20839;DHT22;10580;51.092;6.828;2022-07-29T04:25:04;16.90;1.00
20839;DHT22;10580;51.092;6.828;2022-07-29T04:27:30;16.90;1.00
20839;DHT22;10580;51.092;6.828;2022-07-29T04:29:55;16.90;1.00
20839;DHT22;10580;51.092;6.828;2022-07-29T04:32:21;16.80;14.20
20839;DHT22;10580;51.092;6.828;2022-07-29T04:34:47;16.80;15.50
20839;DHT22;10580;51.092;6.828;2022-07-29T04:37:13;16.70;18.00
20839;DHT22;10580;51.092;6.828;2022-07-29T04:39:38;16.70;13.40
20839;DHT22;10580;51.092;6.828;2022-07-29T04:42:04;16.70;14.20
20839;DHT22;10580;51.092;6.828;2022-07-29T04:44:30;16.60;18.70
20839;DHT22;10580;51.092;6.828;2022-07-29T04:47:09;16.70;18.60
20839;DHT22;10580;51.092;6.828;2022-07-29T04:49:38;16.60;14.10
20839;DHT22;10580;51.092;6.828;2022-07-29T04:52:04;16.60;16.00
20839;DHT22;10580;51.092;6.828;2022-07-29T04:54:30;16.60;14.30
20839;DHT22;10580;51.092;6.828;2022-07-29T04:56:55;16.70;18.80
20839;DHT22;10580;51.092;6.828;2022-07-29T04:59:21;16.70;17.30
20839;DHT22;10580;51.092;6.828;2022-07-29T05:01:46;16.70;21.80
20839;DHT22;10580;51.092;6.828;2022-07-29T05:04:12;16.70;19.90
20839;DHT22;10580;51.092;6.828;2022-07-29T05:06:56;16.70;23.00
20839;DHT22;10580;51.092;6.828;2022-07-29T05:09:25;16.70;12.90
20839;DHT22;10580;51.092;6.828;2022-07-29T05:11:50;16.80;19.60
20839;DHT22;10580;51.092;6.828;2022-07-29T05:14:16;16.80;21.20
20839;DHT22;10580;51.092;6.828;2022-07-29T05:16:42;16.80;19.20
20839;DHT22;10580;51.092;6.828;2022-07-29T05:19:08;16.80;14.80
20839;DHT22;10580;51.092;6.828;2022-07-29T05:21:34;16.80;15.90
20839;DHT22;10580;51.092;6.828;2022-07-29T05:24:00;16.80;16.00
20839;DHT22;10580;51.092;6.828;2022-07-29T05:26:26;16.90;10.20
20839;DHT22;10580;51.092;6.828;2022-07-29T05:28:51;16.90;11.70
20839;DHT22;10580;51.092;6.828;2022-07-29T05:31:19;17.00;7.10
20839;DHT22;10580;51.092;6.828;2022-07-29T05:33:44;17.00;6.10
20839;DHT22;10580;51.092;6.828;2022-07-29T05:36:10;17.10;1.00
20839;DHT22;10580;51.092;6.828;2022-07-29T05:38:37;17.10;2.90
20839;DHT22;10580;51.092;6.828;2022-07-29T05:41:03;17.20;2.10
20839;DHT22;10580;51.092;6.828;2022-07-29T05:43:28;17.30;1.00
20839;DHT22;10580;51.092;6.828;2022-07-29T05:45:54;17.40;1.00
20839;DHT22;10580;51.092;6.828;2022-07-29T05:48:20;17.40;1.00
20839;DHT22;10580;51.092;6.828;2022-07-29T05:50:46;17.50;1.00
20839;DHT22;10580;51.092;6.828;2022-07-29T05:53:11;17.70;1.00
20839;DHT22;10580;51.092;6.828;2022-07-29T05:56:04;17.70;1.00
20839;DHT22;10580;51.092;6.828;2022-07-29T05:58:59;17.80;1.00
20839;DHT22;10580;51.092;6.828;2022-07-29T06:01:30;17.90;1.00
20839;DHT22;10580;51.092;6.828;2022-07-29T06:03:56;17.90;1.00
20839;DHT22;10580;51.092;6.828;2022-07-29T06:06:22;18.00;1.00
20839;DHT22;10580;51.092;6.828;2022-07-29T06:08:47;18.00;1.00
20839;DHT22;10580;51.092;6.828;2022-07-29T06:11:13;18.10;1.00
20839;DHT22;10580;51.092;6.828;2022-07-29T06:13:39;18.10;1.00
20839;DHT22;10580;51.092;6.828;2022-07-29T06:16:32;18.10;1.00
20839;DHT22;10580;51.092;6.828;2022-07-29T06:18:58;18.20;1.00
20839;DHT22;10580;51.092;6.828;2022-07-29T06:21:45;18.20;1.00
20839;DHT22;10580;51.092;6.828;2022-07-29T06:24:31;18.20;1.00
20839;DHT22;10580;51.092;6.828;2022-07-29T06:26:56;18.30;1.00
20839;DHT22;10580;51.092;6.828;2022-07-29T06:29:22;18.30;1.00
20839;DHT22;10580;51.092;6.828;2022-07-29T06:31:56;18.40;1.00
20839;DHT22;10580;51.092;6.828;2022-07-29T06:34:21;18.40;1.00
20839;DHT22;10580;51.092;6.828;2022-07-29T06:36:47;18.50;1.00
20839;DHT22;10580;51.092;6.828;2022-07-29T06:39:14;18.50;1.00
20839;DHT22;10580;51.092;6.828;2022-07-29T06:41:50;18.50;1.00
20839;DHT22;10580;51.092;6.828;2022-07-29T06:44:17;18.60;1.00
20839;DHT22;10580;51.092;6.828;2022-07-29T06:46:43;18.60;1.00
20839;DHT22;10580;51.092;6.828;2022-07-29T06:49:09;18.60;1.00
20839;DHT22;10580;51.092;6.828;2022-07-29T06:51:35;18.50;1.00
20839;DHT22;10580;51.092;6.828;2022-07-29T06:54:27;18.50;1.00
20839;DHT22;10580;51.092;6.828;2022-07-29T06:56:55;18.40;1.00
20839;DHT22;10580;51.092;6.828;2022-07-29T06:59:21;18.20;1.00
20839;DHT22;10580;51.092;6.828;2022-07-29T07:01:47;18.20;1.00
20839;DHT22;10580;51.092;6.828;2022-07-29T07:04:12;18.10;30.10
20839;DHT22;10580;51.092;6.828;2022-07-29T07:06:38;17.90;77.90
20839;DHT22;10580;51.092;6.828;2022-07-29T07:09:04;17.90;98.30
20839;DHT22;10580;51.092;6.828;2022-07-29T07:11:30;17.70;99.90
20839;DHT22;10580;51.092;6.828;2022-07-29T07:14:05;17.70;99.90
20839;DHT22;10580;51.092;6.828;2022-07-29T07:16:33;17.60;99.90
20839;DHT22;10580;51.092;6.828;2022-07-29T07:19:00;17.60;99.90
20839;DHT22;10580;51.092;6.828;2022-07-29T07:24:59;17.50;99.90
20839;DHT22;10580;51.092;6.828;2022-07-29T07:27:25;17.50;99.90
20839;DHT22;10580;51.092;6.828;2022-07-29T07:29:58;17.40;99.90
20839;DHT22;10580;51.092;6.828;2022-07-29T07:32:49;17.30;99.90
20839;DHT22;10580;51.092;6.828;2022-07-29T07:35:15;17.20;99.90
20839;DHT22;10580;51.092;6.828;2022-07-29T07:37:41;17.20;99.90
20839;DHT22;10580;51.092;6.828;2022-07-29T07:40:40;17.40;99.90
20839;DHT22;10580;51.092;6.828;2022-07-29T07:43:31;17.40;99.90
20839;DHT22;10580;51.092;6.828;2022-07-29T07:49:19;17.30;99.90
20839;DHT22;10580;51.092;6.828;2022-07-29T07:51:44;17.20;99.90
20839;DHT22;10580;51.092;6.828;2022-07-29T07:54:10;17.20;99.90
20839;DHT22;10580;51.092;6.828;2022-07-29T07:56:36;17.20;99.90
20839;DHT22;10580;51.092;6.828;2022-07-29T07:59:25;17.20;99.90
20839;DHT22;10580;51.092;6.828;2022-07-29T08:01:51;17.20;99.90
20839;DHT22;10580;51.092;6.828;2022-07-29T08:04:19;17.20;99.90
20839;DHT22;10580;51.092;6.828;2022-07-29T08:07:15;17.30;99.90
20839;DHT22;10580;51.092;6.828;2022-07-29T08:09:41;17.30;99.90
20839;DHT22;10580;51.092;6.828;2022-07-29T08:12:07;17.20;99.90
20839;DHT22;10580;51.092;6.828;2022-07-29T08:14:32;17.20;99.90
20839;DHT22;10580;51.092;6.828;2022-07-29T08:17:01;17.10;99.90
20839;DHT22;10580;51.092;6.828;2022-07-29T08:19:42;17.20;99.90
20839;DHT22;10580;51.092;6.828;2022-07-29T08:22:07;17.30;99.90
20839;DHT22;10580;51.092;6.828;2022-07-29T08:24:33;17.40;99.90
20839;DHT22;10580;51.092;6.828;2022-07-29T08:27:08;17.40;99.90
20839;DHT22;10580;51.092;6.828;2022-07-29T08:29:37;17.40;99.90
20839;DHT22;10580;51.092;6.828;2022-07-29T08:32:06;17.50;99.90
20839;DHT22;10580;51.092;6.828;2022-07-29T08:34:32;17.60;99.90
20839;DHT22;10580;51.092;6.828;2022-07-29T08:36:58;17.70;99.90
20839;DHT22;10580;51.092;6.828;2022-07-29T08:39:24;17.70;99.90
20839;DHT22;10580;51.092;6.828;2022-07-29T08:41:52;17.70;99.90
20839;DHT22;10580;51.092;6.828;2022-07-29T08:44:21;17.80;99.90
20839;DHT22;10580;51.092;6.828;2022-07-29T08:50:13;17.90;99.90
20839;DHT22;10580;51.092;6.828;2022-07-29T08:52:41;18.00;99.90
20839;DHT22;10580;51.092;6.828;2022-07-29T08:55:10;18.00;99.90
20839;DHT22;10580;51.092;6.828;2022-07-29T08:57:39;18.00;99.90
20839;DHT22;10580;51.092;6.828;2022-07-29T09:00:07;17.90;99.90
20839;DHT22;10580;51.092;6.828;2022-07-29T09:02:40;18.00;99.90
20839;DHT22;10580;51.092;6.828;2022-07-29T09:05:15;18.00;99.90
20839;DHT22;10580;51.092;6.828;2022-07-29T09:07:41;18.00;99.90
20839;DHT22;10580;51.092;6.828;2022-07-29T09:10:27;18.10;99.90
20839;DHT22;10580;51.092;6.828;2022-07-29T09:12:56;18.20;99.90
20839;DHT22;10580;51.092;6.828;2022-07-29T09:15:22;18.30;99.90
20839;DHT22;10580;51.092;6.828;2022-07-29T09:17:49;18.30;99.90
20839;DHT22;10580;51.092;6.828;2022-07-29T09:20:20;18.30;99.90
20839;DHT22;10580;51.092;6.828;2022-07-29T09:22:48;18.40;99.90
20839;DHT22;10580;51.092;6.828;2022-07-29T09:25:38;18.40;99.90
20839;DHT22;10580;51.092;6.828;2022-07-29T09:28:10;18.40;99.90
20839;DHT22;10580;51.092;6.828;2022-07-29T09:31:01;18.40;99.90
20839;DHT22;10580;51.092;6.828;2022-07-29T09:33:53;18.40;99.90
20839;DHT22;10580;51.092;6.828;2022-07-29T09:36:20;18.40;99.90
20839;DHT22;10580;51.092;6.828;2022-07-29T09:39:12;18.40;99.90
20839;DHT22;10580;51.092;6.828;2022-07-29T09:44:58;18.50;99.90
20839;DHT22;10580;51.092;6.828;2022-07-29T09:47:49;18.60;99.90
20839;DHT22;10580;51.092;6.828;2022-07-29T09:50:15;18.60;99.90
20839;DHT22;10580;51.092;6.828;2022-07-29T09:52:52;18.70;99.90
20839;DHT22;10580;51.092;6.828;2022-07-29T09:55:24;18.80;99.90
20839;DHT22;10580;51.092;6.828;2022-07-29T10:01:11;19.30;99.90
20839;DHT22;10580;51.092;6.828;2022-07-29T10:03:53;19.60;99.90
20839;DHT22;10580;51.092;6.828;2022-07-29T10:06:19;19.90;99.90
20839;DHT22;10580;51.092;6.828;2022-07-29T10:08:44;20.40;99.90
20839;DHT22;10580;51.092;6.828;2022-07-29T10:11:17;20.70;99.90
20839;DHT22;10580;51.092;6.828;2022-07-29T10:13:48;20.80;99.90
20839;DHT22;10580;51.092;6.828;2022-07-29T10:16:19;20.80;99.90
20839;DHT22;10580;51.092;6.828;2022-07-29T10:18:45;20.70;99.90
20839;DHT22;10580;51.092;6.828;2022-07-29T10:21:12;20.70;29.60
20839;DHT22;10580;51.092;6.828;2022-07-29T10:23:38;20.70;28.90
20839;DHT22;10580;51.092;6.828;2022-07-29T10:26:05;20.60;46.70
20839;DHT22;10580;51.092;6.828;2022-07-29T10:28:42;20.50;99.90
20839;DHT22;10580;51.092;6.828;2022-07-29T11:21:56;24.10;99.90
20839;DHT22;10580;51.092;6.828;2022-07-29T11:24:52;24.70;1.00
20839;DHT22;10580;51.092;6.828;2022-07-29T11:37:41;24.80;44.40
20839;DHT22;10580;51.092;6.828;2022-07-29T11:40:13;25.30;99.90
20839;DHT22;10580;51.092;6.828;2022-07-29T11:42:50;25.60;1.00
20839;DHT22;10580;51.092;6.828;2022-07-29T11:45:25;25.60;1.00
20839;DHT22;10580;51.092;6.828;2022-07-29T11:48:07;25.70;99.90
20839;DHT22;10580;51.092;6.828;2022-07-29T11:50:51;25.60;99.90
20839;DHT22;10580;51.092;6.828;2022-07-29T11:53:17;25.20;1.00
20839;DHT22;10580;51.092;6.828;2022-07-29T11:55:43;25.20;1.00
20839;DHT22;10580;51.092;6.828;2022-07-29T11:58:09;25.20;99.90
20839;DHT22;10580;51.092;6.828;2022-07-29T12:29:42;28.20;99.90
20839;DHT22;10580;51.092;6.828;2022-07-29T12:32:09;27.40;99.90
20839;DHT22;10580;51.092;6.828;2022-07-29T12:34:34;27.30;99.90
20839;DHT22;10580;51.092;6.828;2022-07-29T12:37:21;27.30;99.90
20839;DHT22;10580;51.092;6.828;2022-07-29T12:39:46;27.50;99.90
20839;DHT22;10580;51.092;6.828;2022-07-29T12:42:13;27.50;1.00
20839;DHT22;10580;51.092;6.828;2022-07-29T12:44:49;27.80;1.00
20839;DHT22;10580;51.092;6.828;2022-07-29T12:47:16;27.60;1.00
20839;DHT22;10580;51.092;6.828;2022-07-29T12:49:43;27.70;1.00
20839;DHT22;10580;51.092;6.828;2022-07-29T12:52:31;28.00;1.00
20839;DHT22;10580;51.092;6.828;2022-07-29T12:55:01;28.50;1.00
20839;DHT22;10580;51.092;6.828;2022-07-29T12:57:27;28.50;1.00
20839;DHT22;10580;51.092;6.828;2022-07-29T13:00:16;28.10;1.00
20839;DHT22;10580;51.092;6.828;2022-07-29T13:02:42;28.10;1.00
20839;DHT22;10580;51.092;6.828;2022-07-29T13:05:09;27.80;1.00
20839;DHT22;10580;51.092;6.828;2022-07-29T13:07:37;27.60;1.00
20839;DHT22;10580;51.092;6.828;2022-07-29T13:10:35;27.60;1.00
20839;DHT22;10580;51.092;6.828;2022-07-29T13:13:30;27.50;1.00
20839;DHT22;10580;51.092;6.828;2022-07-29T13:16:07;28.00;1.00
20839;DHT22;10580;51.092;6.828;2022-07-29T13:25:33;28.30;1.00
20839;DHT22;10580;51.092;6.828;2022-07-29T13:31:25;28.90;1.00
20839;DHT22;10580;51.092;6.828;2022-07-29T13:33:50;29.10;1.00
20839;DHT22;10580;51.092;6.828;2022-07-29T13:36:16;28.80;99.90
20839;DHT22;10580;51.092;6.828;2022-07-29T13:38:42;28.40;99.90
20839;DHT22;10580;51.092;6.828;2022-07-29T13:41:07;28.60;99.90
20839;DHT22;10580;51.092;6.828;2022-07-29T13:46:37;29.00;1.00
20839;DHT22;10580;51.092;6.828;2022-07-29T13:49:12;28.80;99.90
20839;DHT22;10580;51.092;6.828;2022-07-29T13:51:38;28.90;99.90
20839;DHT22;10580;51.092;6.828;2022-07-29T13:54:04;28.80;99.90
20839;DHT22;10580;51.092;6.828;2022-07-29T13:56:30;28.50;99.90
20839;DHT22;10580;51.092;6.828;2022-07-29T13:58:55;28.30;99.90
20839;DHT22;10580;51.092;6.828;2022-07-29T14:01:22;28.30;99.90
20839;DHT22;10580;51.092;6.828;2022-07-29T14:03:48;28.50;99.90
20839;DHT22;10580;51.092;6.828;2022-07-29T14:06:14;28.30;1.00
20839;DHT22;10580;51.092;6.828;2022-07-29T14:08:39;28.40;99.90
20839;DHT22;10580;51.092;6.828;2022-07-29T14:11:05;28.30;1.00
20839;DHT22;10580;51.092;6.828;2022-07-29T14:13:31;28.60;99.90
20839;DHT22;10580;51.092;6.828;2022-07-29T14:15:57;28.30;99.90
20839;DHT22;10580;51.092;6.828;2022-07-29T14:18:22;28.20;99.90
20839;DHT22;10580;51.092;6.828;2022-07-29T14:20:59;28.00;99.90
20839;DHT22;10580;51.092;6.828;2022-07-29T14:23:24;27.80;1.00
20839;DHT22;10580;51.092;6.828;2022-07-29T14:25:51;27.40;99.90
20839;DHT22;10580;51.092;6.828;2022-07-29T14:28:17;27.30;99.90
20839;DHT22;10580;51.092;6.828;2022-07-29T14:30:42;27.60;99.90
20839;DHT22;10580;51.092;6.828;2022-07-29T14:33:08;27.70;99.90
20839;DHT22;10580;51.092;6.828;2022-07-29T14:35:34;27.50;1.00
20839;DHT22;10580;51.092;6.828;2022-07-29T14:37:59;27.40;99.90
20839;DHT22;10580;51.092;6.828;2022-07-29T14:40:43;27.00;99.90
20839;DHT22;10580;51.092;6.828;2022-07-29T14:43:09;27.00;1.00
20839;DHT22;10580;51.092;6.828;2022-07-29T14:45:34;27.00;1.00
20839;DHT22;10580;51.092;6.828;2022-07-29T14:48:00;27.00;1.00
20839;DHT22;10580;51.092;6.828;2022-07-29T14:50:26;26.90;1.00
20839;DHT22;10580;51.092;6.828;2022-07-29T14:52:52;26.90;1.00
20839;DHT22;10580;51.092;6.828;2022-07-29T14:55:18;26.90;1.00
20839;DHT22;10580;51.092;6.828;2022-07-29T14:57:43;26.80;1.00
20839;DHT22;10580;51.092;6.828;2022-07-29T15:00:09;26.80;1.00
20839;DHT22;10580;51.092;6.828;2022-07-29T15:02:36;27.00;99.90
20839;DHT22;10580;51.092;6.828;2022-07-29T15:05:02;27.10;1.00
20839;DHT22;10580;51.092;6.828;2022-07-29T15:07:28;27.10;99.90
20839;DHT22;10580;51.092;6.828;2022-07-29T15:09:53;27.00;1.00
20839;DHT22;10580;51.092;6.828;2022-07-29T15:12:21;26.90;99.90
20839;DHT22;10580;51.092;6.828;2022-07-29T15:14:47;26.80;1.00
20839;DHT22;10580;51.092;6.828;2022-07-29T15:17:13;26.60;1.00
20839;DHT22;10580;51.092;6.828;2022-07-29T15:19:38;26.60;99.90
20839;DHT22;10580;51.092;6.828;2022-07-29T15:22:04;26.60;99.90
20839;DHT22;10580;51.092;6.828;2022-07-29T15:24:30;26.50;99.90
20839;DHT22;10580;51.092;6.828;2022-07-29T15:26:58;26.30;99.90
20839;DHT22;10580;51.092;6.828;2022-07-29T15:29:24;26.10;99.90
20839;DHT22;10580;51.092;6.828;2022-07-29T15:32:02;26.10;99.90
20839;DHT22;10580;51.092;6.828;2022-07-29T15:34:30;26.30;1.00
20839;DHT22;10580;51.092;6.828;2022-07-29T15:36:58;26.40;99.90
20839;DHT22;10580;51.092;6.828;2022-07-29T15:39:24;26.20;99.90
20839;DHT22;10580;51.092;6.828;2022-07-29T15:45:19;26.00;99.90
20839;DHT22;10580;51.092;6.828;2022-07-29T15:48:15;25.80;99.90
20839;DHT22;10580;51.092;6.828;2022-07-29T15:50:41;25.40;99.90
20839;DHT22;10580;51.092;6.828;2022-07-29T15:53:06;25.10;99.90
20839;DHT22;10580;51.092;6.828;2022-07-29T15:55:32;25.00;99.90
20839;DHT22;10580;51.092;6.828;2022-07-29T15:57:57;24.90;99.90
20839;DHT22;10580;51.092;6.828;2022-07-29T16:00:23;24.80;99.90
20839;DHT22;10580;51.092;6.828;2022-07-29T16:06:26;24.80;99.90
20839;DHT22;10580;51.092;6.828;2022-07-29T16:09:05;24.80;1.00
20839;DHT22;10580;51.092;6.828;2022-07-29T16:11:31;24.70;99.90
20839;DHT22;10580;51.092;6.828;2022-07-29T16:14:03;24.60;99.90
20839;DHT22;10580;51.092;6.828;2022-07-29T16:17:01;24.60;99.90
20839;DHT22;10580;51.092;6.828;2022-07-29T16:19:57;24.40;1.00
20839;DHT22;10580;51.092;6.828;2022-07-29T16:26:07;24.50;1.00
20839;DHT22;10580;51.092;6.828;2022-07-29T16:28:35;24.50;1.00
20839;DHT22;10580;51.092;6.828;2022-07-29T16:31:07;24.40;1.00
20839;DHT22;10580;51.092;6.828;2022-07-29T16:37:36;24.20;1.00
20839;DHT22;10580;51.092;6.828;2022-07-29T16:40:12;24.20;1.00
20839;DHT22;10580;51.092;6.828;2022-07-29T16:42:38;24.30;1.00
20839;DHT22;10580;51.092;6.828;2022-07-29T16:45:04;24.40;1.00
20839;DHT22;10580;51.092;6.828;2022-07-29T16:47:30;24.50;1.00
20839;DHT22;10580;51.092;6.828;2022-07-29T16:49:58;24.50;1.00
20839;DHT22;10580;51.092;6.828;2022-07-29T16:52:23;24.50;1.00
20839;DHT22;10580;51.092;6.828;2022-07-29T16:54:52;24.50;1.00
20839;DHT22;10580;51.092;6.828;2022-07-29T16:57:18;24.50;1.00
20839;DHT22;10580;51.092;6.828;2022-07-29T17:03:10;24.50;1.00
20839;DHT22;10580;51.092;6.828;2022-07-29T17:05:36;24.50;99.90
20839;DHT22;10580;51.092;6.828;2022-07-29T17:08:02;24.40;99.90
20839;DHT22;10580;51.092;6.828;2022-07-29T17:10:27;24.20;1.00
20839;DHT22;10580;51.092;6.828;2022-07-29T17:12:54;24.20;1.00
20839;DHT22;10580;51.092;6.828;2022-07-29T17:15:20;24.20;1.00
20839;DHT22;10580;51.092;6.828;2022-07-29T17:17:46;24.20;1.00
20839;DHT22;10580;51.092;6.828;2022-07-29T17:20:12;24.10;1.00
20839;DHT22;10580;51.092;6.828;2022-07-29T17:22:38;24.10;33.00
20839;DHT22;10580;51.092;6.828;2022-07-29T17:25:05;24.20;99.90
20839;DHT22;10580;51.092;6.828;2022-07-29T17:27:32;24.20;1.00
20839;DHT22;10580;51.092;6.828;2022-07-29T17:30:16;24.10;1.00
20839;DHT22;10580;51.092;6.828;2022-07-29T17:32:42;24.10;1.00
20839;DHT22;10580;51.092;6.828;2022-07-29T17:35:08;24.10;99.90
20839;DHT22;10580;51.092;6.828;2022-07-29T17:37:52;24.00;99.90
20839;DHT22;10580;51.092;6.828;2022-07-29T17:40:18;24.00;99.90
20839;DHT22;10580;51.092;6.828;2022-07-29T17:42:43;24.00;99.90
20839;DHT22;10580;51.092;6.828;2022-07-29T17:45:09;24.00;99.90
20839;DHT22;10580;51.092;6.828;2022-07-29T17:47:35;23.90;64.30
20839;DHT22;10580;51.092;6.828;2022-07-29T17:50:11;23.80;1.00
20839;DHT22;10580;51.092;6.828;2022-07-29T17:55:48;23.70;1.00
20839;DHT22;10580;51.092;6.828;2022-07-29T17:58:14;23.60;1.00
20839;DHT22;10580;51.092;6.828;2022-07-29T18:00:40;23.60;37.70
20839;DHT22;10580;51.092;6.828;2022-07-29T18:03:06;23.60;99.90
20839;DHT22;10580;51.092;6.828;2022-07-29T18:05:32;23.60;1.00
20839;DHT22;10580;51.092;6.828;2022-07-29T18:07:58;23.60;91.70
20839;DHT22;10580;51.092;6.828;2022-07-29T18:10:24;23.60;1.00
20839;DHT22;10580;51.092;6.828;2022-07-29T18:12:49;23.60;1.00
20839;DHT22;10580;51.092;6.828;2022-07-29T18:18:58;23.40;99.90
20839;DHT22;10580;51.092;6.828;2022-07-29T18:21:24;23.40;99.90
20839;DHT22;10580;51.092;6.828;2022-07-29T18:23:50;23.40;99.90
20839;DHT22;10580;51.092;6.828;2022-07-29T18:26:17;23.30;99.90
20839;DHT22;10580;51.092;6.828;2022-07-29T18:29:09;23.30;99.90
20839;DHT22;10580;51.092;6.828;2022-07-29T18:31:41;23.20;1.00
20839;DHT22;10580;51.092;6.828;2022-07-29T18:34:28;23.20;1.00
20839;DHT22;10580;51.092;6.828;2022-07-29T18:37:20;23.20;1.00
20839;DHT22;10580;51.092;6.828;2022-07-29T18:42:29;23.10;1.00
20839;DHT22;10580;51.092;6.828;2022-07-29T18:44:54;23.10;99.90
20839;DHT22;10580;51.092;6.828;2022-07-29T18:47:20;23.10;1.00
20839;DHT22;10580;51.092;6.828;2022-07-29T18:49:45;23.10;99.90
20839;DHT22;10580;51.092;6.828;2022-07-29T18:52:11;23.10;1.00
20839;DHT22;10580;51.092;6.828;2022-07-29T18:54:37;23.10;99.90
20839;DHT22;10580;51.092;6.828;2022-07-29T18:57:02;23.00;99.90
20839;DHT22;10580;51.092;6.828;2022-07-29T18:59:28;23.00;1.00
20839;DHT22;10580;51.092;6.828;2022-07-29T19:01:55;22.90;1.00
20839;DHT22;10580;51.092;6.828;2022-07-29T19:04:21;22.80;1.00
20839;DHT22;10580;51.092;6.828;2022-07-29T19:06:47;22.70;1.00
20839;DHT22;10580;51.092;6.828;2022-07-29T19:09:12;22.60;1.00
20839;DHT22;10580;51.092;6.828;2022-07-29T19:11:38;22.60;99.90
20839;DHT22;10580;51.092;6.828;2022-07-29T19:14:04;22.50;1.00
20839;DHT22;10580;51.092;6.828;2022-07-29T19:16:30;22.40;1.00
20839;DHT22;10580;51.092;6.828;2022-07-29T19:18:56;22.30;99.90
20839;DHT22;10580;51.092;6.828;2022-07-29T19:21:22;22.20;1.00
20839;DHT22;10580;51.092;6.828;2022-07-29T19:23:49;22.20;1.00
20839;DHT22;10580;51.092;6.828;2022-07-29T19:26:16;22.10;95.80
20839;DHT22;10580;51.092;6.828;2022-07-29T19:28:41;22.00;99.90
20839;DHT22;10580;51.092;6.828;2022-07-29T19:31:07;21.90;99.90
20839;DHT22;10580;51.092;6.828;2022-07-29T19:36:54;21.60;1.00
20839;DHT22;10580;51.092;6.828;2022-07-29T19:39:20;21.50;1.00
20839;DHT22;10580;51.092;6.828;2022-07-29T19:41:45;21.40;1.00
20839;DHT22;10580;51.092;6.828;2022-07-29T19:44:12;21.30;1.00
20839;DHT22;10580;51.092;6.828;2022-07-29T19:46:38;21.20;1.00
20839;DHT22;10580;51.092;6.828;2022-07-29T19:49:04;21.10;1.00
20839;DHT22;10580;51.092;6.828;2022-07-29T19:51:34;21.00;1.00